< < Back
Terminal Aerodrome Forecast


Current Version              Previous Versions:   1  2  3  4  5  6  7  8  9  

Terminal Aerodrome Forecast

415
FTUS42 KJAX 290521
TAFSSI
TAF
KSSI 290521Z 2906/3006 VRB03KT P6SM SCT100
     FM291400 06010KT P6SM SKC
     FM300100 10005KT P6SM SKC=

Latest METAR

609
SAUS70 KWBC 291200
MTRSSI
METAR KSSI 291153Z AUTO 34007KT 10SM CLR 04/M01 A3035 RMK AO2 SLP276
T00391011 10078 20039 53027


USA.gov is the U.S. government's official web portal to all federal, state and local government web resources and services.